createdAt,value
2022-10-25T00:03:36.466Z,100.00
2022-10-25T00:08:39.715Z,100.00
2022-10-25T00:13:42.533Z,100.00
2022-10-25T00:18:46.847Z,100.00
2022-10-25T00:23:50.099Z,100.00
2022-10-25T00:29:17.008Z,100.00
2022-10-25T00:34:21.257Z,100.00
2022-10-25T00:39:24.132Z,100.00
2022-10-25T00:44:50.762Z,100.00
2022-10-25T00:50:01.989Z,100.00
2022-10-25T00:55:07.469Z,100.00
2022-10-25T01:00:12.274Z,100.00
2022-10-25T01:05:17.463Z,100.00
2022-10-25T01:10:20.342Z,100.00
2022-10-25T01:15:28.764Z,100.00
2022-10-25T01:21:06.278Z,100.00
2022-10-25T01:26:35.120Z,100.00
2022-10-25T01:31:45.928Z,100.00
2022-10-25T01:36:57.169Z,100.00
2022-10-25T01:42:06.473Z,100.00
2022-10-25T01:47:18.456Z,100.00
2022-10-25T01:52:22.812Z,100.00
2022-10-25T01:57:40.066Z,100.00
2022-10-25T02:03:11.761Z,100.00
2022-10-25T02:08:25.835Z,100.00
2022-10-25T02:13:31.821Z,100.00
2022-10-25T02:18:40.743Z,100.00
2022-10-25T02:23:44.448Z,100.00
2022-10-25T02:28:47.713Z,100.00
2022-10-25T02:33:51.955Z,100.00
2022-10-25T02:38:57.350Z,100.00
2022-10-25T02:44:00.206Z,100.00
2022-10-25T02:49:04.433Z,100.00
2022-10-25T02:54:07.301Z,100.00
2022-10-25T02:59:13.065Z,100.00
2022-10-25T03:04:17.267Z,100.00
2022-10-25T03:09:20.082Z,100.00
2022-10-25T03:14:22.954Z,100.00
2022-10-25T03:19:27.193Z,100.00
2022-10-25T03:24:29.977Z,100.00
2022-10-25T03:29:32.722Z,100.00
2022-10-25T03:34:37.085Z,100.00
2022-10-25T03:39:39.909Z,100.00
2022-10-25T03:44:42.637Z,100.00
2022-10-25T03:49:46.993Z,100.00
2022-10-25T03:54:49.840Z,100.00
2022-10-25T03:59:52.873Z,100.00
2022-10-25T04:04:56.996Z,100.00
2022-10-25T04:09:59.742Z,100.00
2022-10-25T04:15:02.548Z,100.00
2022-10-25T04:20:08.170Z,100.00
2022-10-25T04:25:11.018Z,100.00
2022-10-25T04:30:14.277Z,100.00
2022-10-25T04:35:18.744Z,100.00
2022-10-25T04:40:24.079Z,100.00
2022-10-25T04:45:27.694Z,100.00
2022-10-25T04:50:31.872Z,100.00
2022-10-25T04:55:34.658Z,100.00
2022-10-25T05:00:37.419Z,100.00
2022-10-25T05:05:41.618Z,100.00
2022-10-25T05:10:44.358Z,100.00
2022-10-25T05:15:55.909Z,100.00
2022-10-25T05:21:04.378Z,100.00
2022-10-25T05:26:09.002Z,100.00
2022-10-25T05:31:15.175Z,100.00
2022-10-25T05:36:20.336Z,100.00
2022-10-25T05:41:23.133Z,100.00
2022-10-25T05:46:25.919Z,100.00
2022-10-25T05:51:36.636Z,100.00
2022-10-25T05:56:40.529Z,100.00
2022-10-25T06:01:45.464Z,100.00
2022-10-25T06:06:52.090Z,100.00
2022-10-25T06:11:54.884Z,100.00
2022-10-25T06:16:57.868Z,100.00
2022-10-25T06:22:02.271Z,100.00
2022-10-25T06:27:05.261Z,100.00
2022-10-25T06:32:07.967Z,100.00
2022-10-25T06:37:12.095Z,100.00
2022-10-25T06:42:14.873Z,100.00
2022-10-25T06:47:18.211Z,100.00
2022-10-25T06:52:22.527Z,100.00
2022-10-25T06:57:25.399Z,100.00
2022-10-25T07:02:28.347Z,100.00
2022-10-25T07:07:32.711Z,100.00
2022-10-25T07:12:38.063Z,100.00
2022-10-25T07:17:40.963Z,100.00
2022-10-25T07:22:46.426Z,100.00
2022-10-25T07:27:49.585Z,100.00
2022-10-25T07:32:52.632Z,100.00
2022-10-25T07:37:56.744Z,100.00
2022-10-25T07:42:59.724Z,100.00
2022-10-25T07:48:02.614Z,100.00
2022-10-25T07:53:06.735Z,100.00
2022-10-25T07:58:12.311Z,100.00
2022-10-25T08:03:15.928Z,100.00
2022-10-25T08:08:23.242Z,100.00
2022-10-25T08:13:26.464Z,100.00
2022-10-25T08:18:29.589Z,100.00
2022-10-25T08:23:34.113Z,100.00
2022-10-25T08:28:37.006Z,100.00
2022-10-25T08:33:39.930Z,100.00
2022-10-25T08:38:44.159Z,100.00
2022-10-25T08:44:13.807Z,100.00
2022-10-25T08:49:20.892Z,100.00
2022-10-25T08:54:29.000Z,100.00
2022-10-25T08:59:36.998Z,100.00
2022-10-25T09:04:39.851Z,99.32
2022-10-25T09:09:53.284Z,98.46
2022-10-25T09:15:03.250Z,99.86
2022-10-25T09:20:08.514Z,100.00
2022-10-25T09:25:21.141Z,100.00
2022-10-25T09:30:24.049Z,96.77
2022-10-25T09:35:29.817Z,96.30
2022-10-25T09:40:47.594Z,94.24
2022-10-25T09:45:55.653Z,93.82
2022-10-25T09:51:03.957Z,90.99
2022-10-25T09:56:09.613Z,91.66
2022-10-25T10:01:17.766Z,94.37
2022-10-25T10:06:22.639Z,95.66
2022-10-25T10:11:26.847Z,96.37
2022-10-25T10:16:35.529Z,93.44
2022-10-25T10:21:42.654Z,94.84
2022-10-25T10:26:51.568Z,95.90
2022-10-25T10:31:56.253Z,94.89
2022-10-25T10:37:07.897Z,92.22
2022-10-25T10:42:18.447Z,88.58
2022-10-25T10:47:22.864Z,87.22
2022-10-25T10:52:31.203Z,86.91
2022-10-25T10:57:36.386Z,87.21
2022-10-25T11:02:41.681Z,88.50
2022-10-25T11:07:45.088Z,87.17
2022-10-25T11:13:06.181Z,86.09
2022-10-25T11:18:10.478Z,84.10
2022-10-25T11:23:22.069Z,84.14
2022-10-25T11:28:41.847Z,82.80
2022-10-25T11:34:00.160Z,82.45
2022-10-25T11:39:17.474Z,78.19
2022-10-25T11:44:49.325Z,74.34
2022-10-25T11:50:13.326Z,71.84
2022-10-25T11:55:27.078Z,74.45
2022-10-25T12:00:44.323Z,73.02
2022-10-25T12:05:54.063Z,72.78
2022-10-25T12:11:03.249Z,72.36
2022-10-25T12:16:12.733Z,71.60
2022-10-25T12:21:21.958Z,70.05
2022-10-25T12:26:30.374Z,71.46
2022-10-25T12:31:39.931Z,69.62
2022-10-25T12:36:45.407Z,70.21
2022-10-25T12:41:52.008Z,71.68
2022-10-25T12:47:20.146Z,70.24
2022-10-25T12:52:30.780Z,70.67
2022-10-25T12:57:47.498Z,71.79
2022-10-25T13:03:34.173Z,70.89
2022-10-25T13:08:41.130Z,70.20
2022-10-25T13:13:50.783Z,71.47
2022-10-25T13:19:49.836Z,72.49
2022-10-25T13:24:52.796Z,73.27
2022-10-25T13:30:19.504Z,75.36
2022-10-25T13:36:00.275Z,75.70
2022-10-25T13:41:09.543Z,75.73
2022-10-25T13:46:12.659Z,77.41
2022-10-25T13:51:18.156Z,80.19
2022-10-25T13:56:35.756Z,78.42
2022-10-25T14:01:54.596Z,78.12
2022-10-25T14:07:37.050Z,79.64
2022-10-25T14:12:43.885Z,80.10
2022-10-25T14:17:49.689Z,80.73
2022-10-25T14:22:57.831Z,82.06
2022-10-25T14:28:07.730Z,82.61
2022-10-25T14:33:23.905Z,83.00
2022-10-25T14:38:29.039Z,83.98
2022-10-25T14:43:34.068Z,85.00
2022-10-25T14:48:37.468Z,85.57
2022-10-25T14:53:52.335Z,85.94
2022-10-25T14:58:56.108Z,88.43
2022-10-25T15:04:02.310Z,89.00
2022-10-25T15:14:31.777Z,91.28
2022-10-25T15:19:58.920Z,90.50
2022-10-25T15:25:03.156Z,91.56
2022-10-25T15:30:06.828Z,92.33
2022-10-25T15:35:23.907Z,93.53
2022-10-25T15:40:28.050Z,95.18
2022-10-25T15:45:32.155Z,97.89
2022-10-25T15:50:35.314Z,100.00
2022-10-25T15:55:41.560Z,100.00
2022-10-25T16:00:45.090Z,100.00
2022-10-25T16:05:50.229Z,99.93
2022-10-25T16:10:55.323Z,100.00
2022-10-25T16:15:58.111Z,100.00
2022-10-25T16:21:00.910Z,100.00
2022-10-25T16:26:05.361Z,100.00
2022-10-25T16:31:08.204Z,100.00
2022-10-25T16:36:14.069Z,100.00
2022-10-25T16:41:26.364Z,100.00
2022-10-25T16:46:29.412Z,100.00
2022-10-25T16:51:34.724Z,100.00
2022-10-25T16:56:42.267Z,100.00
2022-10-25T17:01:46.974Z,98.37
2022-10-25T17:06:50.004Z,99.09
2022-10-25T17:11:54.286Z,99.52
2022-10-25T17:17:02.216Z,99.92
2022-10-25T17:22:06.655Z,100.00
2022-10-25T17:27:13.918Z,100.00
2022-10-25T17:32:17.399Z,100.00
2022-10-25T17:37:51.601Z,100.00
2022-10-25T17:42:59.115Z,100.00
2022-10-25T17:48:03.670Z,100.00
2022-10-25T17:59:54.058Z,100.00
2022-10-25T18:05:58.068Z,100.00
2022-10-25T18:11:50.578Z,100.00
2022-10-25T18:16:55.073Z,100.00
2022-10-25T18:22:13.960Z,100.00
2022-10-25T18:27:17.526Z,100.00
2022-10-25T18:32:35.282Z,100.00
2022-10-25T18:37:50.119Z,100.00
2022-10-25T18:43:00.793Z,100.00
2022-10-25T18:48:41.093Z,100.00
2022-10-25T18:53:39.088Z,100.00
2022-10-25T18:58:45.854Z,100.00
2022-10-25T19:03:50.293Z,100.00
2022-10-25T19:08:57.496Z,100.00
2022-10-25T19:14:04.212Z,100.00
2022-10-25T19:19:09.420Z,100.00
2022-10-25T19:24:16.638Z,100.00
2022-10-25T21:52:36.876Z,100.00
2022-10-25T21:57:39.729Z,100.00
2022-10-25T22:08:42.798Z,100.00
2022-10-25T22:13:47.849Z,100.00
2022-10-25T22:18:54.340Z,100.00
2022-10-25T22:23:57.605Z,100.00
2022-10-25T22:29:02.606Z,100.00
2022-10-25T22:34:07.374Z,100.00
2022-10-25T22:39:10.725Z,100.00
2022-10-25T22:44:15.670Z,100.00
2022-10-25T22:49:19.323Z,100.00
2022-10-25T22:54:22.172Z,100.00
2022-10-25T22:59:26.496Z,100.00
2022-10-25T23:04:31.505Z,100.00
2022-10-25T23:09:37.324Z,100.00
2022-10-25T23:15:06.607Z,100.00
2022-10-25T23:20:11.879Z,100.00
2022-10-25T23:25:20.593Z,100.00
2022-10-25T23:30:49.849Z,100.00
2022-10-25T23:35:56.315Z,100.00
2022-10-25T23:40:59.328Z,100.00
2022-10-25T23:46:04.431Z,100.00
2022-10-25T23:51:22.738Z,100.00
2022-10-25T23:56:32.155Z,100.00
